Time;durP1;ratioP1;P1;durP2;ratioP2;P2;SDS_P1;SDS_P2;PMS_P1;PMS_P2;Temp;Humidity;BMP_temperature;BMP_pressure;BME280_temperature;BME280_humidity;BME280_pressure;Samples;Min_cycle;Max_cycle;Signal;HPM_P1;HPM_P2
2022/09/04 00:02:23;;;;;;;2.37;1.00;;;;;;;24.35;56.51;99231.34;6127890;23;20170;-88
2022/09/04 00:05:02;;;;;;;1.87;1.10;;;;;;;24.29;56.29;99229.34;6127520;23;20215;-88
2022/09/04 00:07:32;;;;;;;2.73;1.20;;;;;;;24.29;56.79;99232.03;6102233;23;20222;-88
2022/09/04 00:10:35;;;;;;;1.73;1.23;;;;;;;24.26;56.89;99233.22;6102204;23;20151;-88
2022/09/04 00:13:16;;;;;;;4.37;1.13;;;;;;;24.28;56.76;99235.72;6101741;23;20513;-88
2022/09/04 00:15:53;;;;;;;3.10;1.40;;;;;;;24.28;56.87;99249.94;6128142;23;20143;-88
2022/09/04 00:18:32;;;;;;;3.47;1.17;;;;;;;24.34;57.07;99261.84;6128080;23;20136;-89
2022/09/04 00:21:13;;;;;;;2.57;1.30;;;;;;;24.27;57.03;99260.81;6128055;23;20155;-88
2022/09/04 00:24:04;;;;;;;3.13;1.40;;;;;;;24.23;57.26;99262.16;6127339;23;20132;-88
2022/09/04 00:26:45;;;;;;;1.87;1.17;;;;;;;24.17;57.57;99270.84;6113640;23;20155;-88
2022/09/04 00:29:16;;;;;;;3.00;1.40;;;;;;;24.18;57.41;99265.34;6127956;23;20140;-88
2022/09/04 00:31:49;;;;;;;3.30;1.33;;;;;;;24.24;57.43;99269.19;6101749;23;20152;-88
2022/09/04 00:34:27;;;;;;;2.80;0.97;;;;;;;24.25;57.23;99278.91;6127622;23;20156;-88
2022/09/04 00:36:57;;;;;;;2.57;1.33;;;;;;;24.16;57.61;99291.41;6101581;23;20187;-88
2022/09/04 00:40:08;;;;;;;2.03;1.00;;;;;;;24.06;57.86;99282.66;6102671;23;20162;-88
2022/09/04 00:43:01;;;;;;;2.37;1.10;;;;;;;24.10;58.45;99288.56;6010843;23;20158;-88
2022/09/04 00:46:05;;;;;;;3.17;1.40;;;;;;;24.12;58.30;99295.44;6127527;23;20136;-88
2022/09/04 00:48:48;;;;;;;2.53;1.43;;;;;;;24.12;58.36;99290.09;6127467;23;20136;-89
2022/09/04 00:51:19;;;;;;;4.77;1.40;;;;;;;24.11;58.83;99299.09;6101445;23;20159;-89
2022/09/04 00:53:47;;;;;;;6.53;1.77;;;;;;;24.11;58.53;99296.44;6127650;23;20250;-88
2022/09/04 00:56:58;;;;;;;2.83;1.33;;;;;;;24.12;58.27;99302.63;6101230;23;20175;-88
2022/09/04 00:59:38;;;;;;;2.53;1.40;;;;;;;24.11;58.09;99298.28;6082693;23;20230;-88
2022/09/04 01:02:25;;;;;;;3.40;1.60;;;;;;;24.09;57.91;99300.28;6127336;23;20155;-88
2022/09/04 01:05:04;;;;;;;3.67;1.37;;;;;;;24.09;58.05;99300.28;6127267;23;20148;-87
2022/09/04 01:07:45;;;;;;;3.20;1.27;;;;;;;24.07;57.75;99300.41;6101450;23;20158;-88
2022/09/04 01:10:37;;;;;;;2.23;1.17;;;;;;;24.06;57.77;99300.56;6127273;23;20140;-88
2022/09/04 01:13:15;;;;;;;2.47;1.33;;;;;;;24.05;57.82;99309.63;6127155;23;20163;-88
2022/09/04 01:15:58;;;;;;;3.27;1.37;;;;;;;24.03;58.03;99311.63;6127229;23;20132;-87
2022/09/04 01:18:56;;;;;;;2.60;1.30;;;;;;;24.01;58.00;99310.91;6101177;23;20214;-87
2022/09/04 01:21:33;;;;;;;3.03;1.50;;;;;;;24.01;57.73;99313.59;6127502;23;20132;-88
2022/09/04 01:24:21;;;;;;;3.73;1.50;;;;;;;23.93;58.39;99310.88;6127492;23;20540;-87
2022/09/04 01:26:53;;;;;;;2.73;1.23;;;;;;;23.89;58.35;99314.91;6127391;23;20170;-87
2022/09/04 01:29:39;;;;;;;5.77;1.60;;;;;;;23.83;58.50;99322.56;6126711;23;20467;-87
2022/09/04 01:32:17;;;;;;;2.07;0.93;;;;;;;23.89;58.33;99320.25;6100997;23;20560;-87
2022/09/04 01:35:16;;;;;;;3.50;1.80;;;;;;;23.85;58.56;99328.59;6101124;23;20223;-87
2022/09/04 01:37:47;;;;;;;3.47;1.30;;;;;;;23.74;59.06;99328.06;6127028;23;20202;-87
2022/09/04 01:40:25;;;;;;;3.87;1.77;;;;;;;23.64;59.49;99322.78;6101085;23;20164;-87
2022/09/04 01:43:03;;;;;;;2.53;1.20;;;;;;;23.59;59.74;99325.09;6127302;23;20167;-87
2022/09/04 01:45:53;;;;;;;2.43;1.20;;;;;;;23.59;59.43;99317.06;6127268;23;20136;-87
2022/09/04 01:48:28;;;;;;;3.67;1.63;;;;;;;23.51;59.88;99322.38;6100949;23;20152;-87
2022/09/04 01:51:00;;;;;;;3.13;1.50;;;;;;;23.49;60.29;99316.34;6126928;23;20140;-87
2022/09/04 01:53:27;;;;;;;3.73;1.87;;;;;;;23.49;60.27;99312.84;6126784;23;20164;-87
2022/09/04 01:56:13;;;;;;;4.10;1.70;;;;;;;23.43;60.77;99313.44;6126332;23;20194;-87
2022/09/04 01:58:53;;;;;;;5.43;2.47;;;;;;;23.43;60.57;99329.50;6127170;23;20140;-87
2022/09/04 02:01:33;;;;;;;4.27;1.67;;;;;;;23.40;60.84;99319.97;6126831;23;20469;-88
2022/09/04 02:04:19;;;;;;;3.80;1.93;;;;;;;23.40;60.80;99327.97;6126474;23;20159;-88
2022/09/04 02:07:31;;;;;;;4.40;1.63;;;;;;;23.34;61.18;99319.72;6126765;23;20136;-87
2022/09/04 02:10:07;;;;;;;6.10;1.73;;;;;;;23.30;61.45;99324.53;6100206;23;20160;-87
2022/09/04 02:12:49;;;;;;;3.10;1.57;;;;;;;23.32;61.41;99321.72;6100733;23;20262;-88
2022/09/04 02:15:42;;;;;;;3.93;1.80;;;;;;;23.29;61.36;99317.53;6100859;23;20190;-88
2022/09/04 02:18:20;;;;;;;4.17;1.70;;;;;;;23.30;61.47;99319.19;6127070;23;20136;-88
2022/09/04 02:20:54;;;;;;;3.20;1.67;;;;;;;23.27;61.40;99314.16;6126317;23;20152;-88
2022/09/04 02:23:38;;;;;;;2.40;1.30;;;;;;;23.24;61.23;99304.59;6127072;23;20136;-87
2022/09/04 02:26:22;;;;;;;3.20;1.30;;;;;;;23.24;61.52;99309.13;6126912;23;20151;-88
2022/09/04 02:29:00;;;;;;;2.73;1.50;;;;;;;23.22;61.44;99300.41;6126424;23;20140;-87
2022/09/04 02:31:42;;;;;;;4.07;1.90;;;;;;;23.20;61.60;99302.41;6127033;23;20206;-88
2022/09/04 02:34:24;;;;;;;3.97;1.80;;;;;;;23.14;61.86;99308.38;6100615;23;20567;-88
2022/09/04 02:37:02;;;;;;;3.43;1.70;;;;;;;23.05;62.31;99314.66;6126537;23;20151;-87
2022/09/04 02:39:57;;;;;;;2.47;1.40;;;;;;;23.08;61.81;99319.72;6126635;23;20140;-87
2022/09/04 02:42:55;;;;;;;2.73;1.90;;;;;;;23.09;62.14;99316.03;6126894;23;20152;-87
2022/09/04 02:45:32;;;;;;;3.20;1.50;;;;;;;23.16;61.63;99309.09;6126594;23;20144;-89
2022/09/04 02:48:14;;;;;;;3.70;1.40;;;;;;;23.11;61.66;99303.38;6126894;23;20199;-88
2022/09/04 02:51:07;;;;;;;3.70;1.87;;;;;;;23.10;61.36;99304.34;6126574;23;20136;-88
2022/09/04 02:53:59;;;;;;;2.63;1.67;;;;;;;23.05;61.89;99302.16;6126492;23;20198;-88
2022/09/04 02:56:45;;;;;;;5.17;1.40;;;;;;;23.03;61.89;99305.97;6126199;23;20183;-88
2022/09/04 02:59:48;;;;;;;2.93;1.40;;;;;;;22.97;61.95;99299.41;6126543;23;20148;-88
2022/09/04 03:02:26;;;;;;;4.57;1.70;;;;;;;22.96;62.27;99311.09;6126435;23;20247;-88
2022/09/04 03:05:00;;;;;;;3.83;1.73;;;;;;;23.00;62.11;99316.97;6126869;23;20464;-88
2022/09/04 03:07:33;;;;;;;3.47;1.53;;;;;;;23.01;62.20;99308.78;6101645;23;20431;-88
2022/09/04 03:10:10;;;;;;;3.33;1.73;;;;;;;23.04;62.21;99318.31;6126078;23;20565;-88
2022/09/04 03:12:46;;;;;;;2.97;1.67;;;;;;;23.04;62.77;99318.31;6126029;23;20621;-88
2022/09/04 03:15:15;;;;;;;2.70;1.40;;;;;;;22.98;63.25;99319.78;6126136;23;20614;-88
2022/09/04 03:17:53;;;;;;;4.33;2.17;;;;;;;22.94;63.51;99329.13;6126058;23;20159;-87
2022/09/04 03:20:22;;;;;;;2.57;1.43;;;;;;;22.93;63.69;99322.06;6126779;23;20136;-87
2022/09/04 03:23:20;;;;;;;3.27;1.30;;;;;;;22.98;63.78;99322.44;6125988;23;20144;-87
2022/09/04 03:26:22;;;;;;;3.27;1.60;;;;;;;23.00;63.34;99323.16;6126415;23;20150;-88
2022/09/04 03:29:13;;;;;;;3.47;1.53;;;;;;;23.01;63.18;99329.31;6126367;23;20143;-88
2022/09/04 03:32:00;;;;;;;3.77;1.80;;;;;;;23.06;62.97;99329.72;6126731;23;20147;-88
2022/09/04 03:34:37;;;;;;;3.33;1.60;;;;;;;23.04;63.31;99329.03;6126680;23;20168;-88
2022/09/04 03:37:16;;;;;;;3.17;1.70;;;;;;;23.10;62.93;99334.59;6100501;23;20542;-88
2022/09/04 03:40:06;;;;;;;3.70;1.80;;;;;;;23.09;63.28;99334.75;6126385;23;20226;-88
2022/09/04 03:42:40;;;;;;;3.07;1.70;;;;;;;23.10;62.94;99341.78;6127652;23;20133;-87
2022/09/04 03:45:09;;;;;;;3.60;1.70;;;;;;;23.11;63.06;99352.31;6102208;23;20484;-87
2022/09/04 03:47:46;;;;;;;2.50;1.50;;;;;;;23.06;62.64;99353.78;6127628;23;20179;-87
2022/09/04 03:50:18;;;;;;;4.60;2.33;;;;;;;23.07;62.77;99350.09;6128031;23;20167;-88
2022/09/04 03:52:52;;;;;;;4.57;2.00;;;;;;;23.07;62.86;99350.97;6127930;23;20164;-88
2022/09/04 03:55:36;;;;;;;4.37;1.87;;;;;;;23.02;63.30;99353.25;6128059;23;20170;-88
2022/09/04 03:58:25;;;;;;;3.07;1.50;;;;;;;23.09;63.16;99358.81;6128241;23;20461;-87
2022/09/04 04:01:24;;;;;;;3.27;1.50;;;;;;;23.06;63.11;99365.31;6128252;23;20463;-87
2022/09/04 04:03:55;;;;;;;5.23;2.07;;;;;;;23.07;63.15;99367.00;6128222;23;20136;-88
2022/09/04 04:06:35;;;;;;;4.63;2.00;;;;;;;23.05;63.38;99368.16;6101943;23;20155;-88
2022/09/04 04:09:12;;;;;;;4.47;1.97;;;;;;;23.03;63.42;99362.97;6128192;23;20140;-88
2022/09/04 04:11:46;;;;;;;3.93;1.80;;;;;;;23.05;63.87;99363.66;6101920;23;20159;-88
2022/09/04 04:14:11;;;;;;;4.03;1.93;;;;;;;23.05;63.83;99363.66;6127768;23;20163;-88
2022/09/04 04:17:18;;;;;;;2.80;1.50;;;;;;;23.06;63.94;99361.81;6127767;23;20151;-88
2022/09/04 04:19:54;;;;;;;2.67;1.40;;;;;;;23.05;63.83;99363.66;6127799;23;20532;-88
2022/09/04 04:22:38;;;;;;;5.00;2.10;;;;;;;23.08;63.97;99359.81;6127412;23;20159;-88
2022/09/04 04:25:33;;;;;;;3.57;1.80;;;;;;;23.11;63.92;99367.53;6127721;23;20147;-88
2022/09/04 04:27:59;;;;;;;4.10;2.13;;;;;;;23.15;63.68;99364.41;6085005;23;20166;-88
2022/09/04 04:30:33;;;;;;;4.13;1.53;;;;;;;22.97;64.64;99362.72;6127281;23;20156;-88
2022/09/04 04:33:11;;;;;;;4.33;1.60;;;;;;;23.05;64.40;99376.16;6127547;23;20163;-88
2022/09/04 04:35:59;;;;;;;3.03;1.60;;;;;;;23.08;64.51;99381.22;6127529;23;20179;-88
2022/09/04 04:38:44;;;;;;;4.13;2.13;;;;;;;23.16;64.28;99383.97;6127570;23;20151;-88
2022/09/04 04:41:23;;;;;;;3.33;1.63;;;;;;;23.24;63.99;99384.84;6127879;23;20132;-87
2022/09/04 04:44:02;;;;;;;3.93;1.70;;;;;;;23.16;64.19;99386.63;6127505;23;20139;-87
2022/09/04 04:46:35;;;;;;;3.57;1.90;;;;;;;23.10;64.56;99392.59;6127497;23;20136;-87
2022/09/04 04:49:27;;;;;;;5.57;2.13;;;;;;;23.08;64.95;99397.25;6101852;23;20247;-87
2022/09/04 04:52:07;;;;;;;4.23;1.77;;;;;;;23.16;64.67;99397.34;6126815;23;20474;-87
2022/09/04 04:55:07;;;;;;;3.13;1.73;;;;;;;23.22;64.62;99407.41;6127098;23;20152;-88
2022/09/04 04:57:47;;;;;;;3.57;1.90;;;;;;;23.27;64.43;99414.97;6127401;23;20136;-88
2022/09/04 05:00:19;;;;;;;3.40;1.87;;;;;;;23.26;64.54;99416.81;6127379;23;20147;-88
2022/09/04 05:03:12;;;;;;;2.97;1.60;;;;;;;23.22;64.80;99420.78;6127590;23;20243;-88
2022/09/04 05:05:59;;;;;;;2.87;1.67;;;;;;;22.99;64.88;99417.72;6127328;23;20133;-87
2022/09/04 05:08:34;;;;;;;5.00;1.53;;;;;;;23.06;65.66;99423.31;6127299;23;20136;-87
2022/09/04 05:11:28;;;;;;;4.27;1.90;;;;;;;23.21;64.66;99422.63;6127213;23;20152;-87
2022/09/04 05:14:21;;;;;;;5.50;1.77;;;;;;;23.27;64.32;99427.34;6127122;23;20164;-87
2022/09/04 05:16:58;;;;;;;4.23;2.40;;;;;;;23.06;65.18;99440.19;6127157;23;20186;-87
2022/09/04 05:19:45;;;;;;;4.67;2.13;;;;;;;23.17;65.34;99442.63;6101283;23;20513;-87
2022/09/04 05:22:19;;;;;;;3.87;2.20;;;;;;;23.02;65.11;99429.94;6127109;23;20435;-89
2022/09/04 05:25:00;;;;;;;3.73;2.00;;;;;;;23.13;64.87;99429.72;6126768;23;20150;-88
2022/09/04 05:27:43;;;;;;;10.07;2.23;;;;;;;23.22;65.13;99428.78;6124672;23;20178;-88
2022/09/04 05:30:51;;;;;;;3.47;1.80;;;;;;;23.33;64.81;99441.09;6125713;23;20140;-88
2022/09/04 05:33:33;;;;;;;3.40;1.90;;;;;;;23.41;64.09;99443.88;6009552;23;20182;-88
2022/09/04 05:36:18;;;;;;;3.90;1.57;;;;;;;23.27;63.82;99454.09;6008992;23;20214;-88
2022/09/04 05:39:04;;;;;;;3.10;1.57;;;;;;;23.21;63.61;99453.88;5986042;23;20575;-88
2022/09/04 05:41:48;;;;;;;3.33;1.80;;;;;;;23.35;64.13;99456.00;6008985;23;20572;-88
2022/09/04 05:44:22;;;;;;;3.67;1.97;;;;;;;23.47;63.71;99460.16;5987540;23;20167;-88
2022/09/04 05:47:25;;;;;;;4.70;2.20;;;;;;;23.68;63.06;99467.88;5985149;23;20225;-88
2022/09/04 05:50:18;;;;;;;3.53;1.70;;;;;;;23.90;62.35;99461.16;6009500;23;20168;-88
2022/09/04 05:53:04;;;;;;;3.60;1.80;;;;;;;23.97;61.42;99467.56;6010193;23;20175;-88
2022/09/04 05:55:33;;;;;;;4.13;1.87;;;;;;;24.00;60.72;99467.25;5986677;23;20214;-88
2022/09/04 05:58:22;;;;;;;2.87;1.50;;;;;;;24.17;59.88;99475.25;6086983;23;20250;-88
2022/09/04 06:01:26;;;;;;;3.90;1.20;;;;;;;24.10;60.50;99478.72;6126809;23;20439;-88
2022/09/04 06:04:18;;;;;;;2.77;1.40;;;;;;;24.05;59.48;99478.34;6109859;23;20162;-88
2022/09/04 06:07:18;;;;;;;3.30;1.57;;;;;;;24.29;58.17;99483.88;6119859;23;20160;-89
2022/09/04 06:10:23;;;;;;;4.67;1.33;;;;;;;24.49;57.58;99479.13;6073345;23;20164;-89
2022/09/04 06:13:18;;;;;;;2.87;1.50;;;;;;;24.55;57.11;99479.31;6099956;23;20175;-88
2022/09/04 06:16:31;;;;;;;3.03;1.80;;;;;;;24.56;57.48;99480.13;6100340;23;20159;-88
2022/09/04 06:19:33;;;;;;;3.53;1.80;;;;;;;24.48;57.17;99488.97;6115759;23;20156;-88
2022/09/04 06:22:34;;;;;;;3.47;1.50;;;;;;;24.25;57.57;99486.03;6100574;23;20162;-87
2022/09/04 06:25:29;;;;;;;3.13;1.63;;;;;;;24.29;58.15;99489.25;6008773;23;20186;-88
2022/09/04 06:28:47;;;;;;;3.70;1.63;;;;;;;24.74;57.26;99495.13;6103495;23;20159;-88
2022/09/04 06:31:52;;;;;;;2.90;1.47;;;;;;;24.92;57.10;99484.34;6101823;23;20155;-88
2022/09/04 06:34:50;;;;;;;3.77;1.73;;;;;;;25.04;56.39;99486.56;6124922;23;20627;-87
2022/09/04 06:37:40;;;;;;;2.90;1.40;;;;;;;25.17;56.01;99493.28;6125742;23;20143;-88
2022/09/04 06:40:34;;;;;;;3.50;1.40;;;;;;;25.35;55.03;99492.16;6100054;23;20607;-88
2022/09/04 06:43:24;;;;;;;5.50;1.33;;;;;;;25.37;54.45;99494.66;6126099;23;20143;-88
2022/09/04 06:46:01;;;;;;;3.27;1.70;;;;;;;25.21;54.74;99490.09;6125767;23;20160;-88
2022/09/04 06:48:59;;;;;;;3.17;1.53;;;;;;;25.05;55.16;99493.59;6125915;23;20132;-88
2022/09/04 06:51:41;;;;;;;3.60;1.60;;;;;;;25.23;55.18;99485.44;6125686;23;20136;-89
2022/09/04 06:55:06;;;;;;;;;;;;;;;;;;;;;
2022/09/04 06:57:51;;;;;;;3.57;1.80;;;;;;;25.73;52.99;99474.59;6122927;23;20250;-88
2022/09/04 07:00:18;;;;;;;3.57;1.60;;;;;;;25.72;53.42;99470.22;6126197;23;20174;-88
2022/09/04 07:03:02;;;;;;;2.57;1.47;;;;;;;25.86;53.08;99482.13;6125480;23;20156;-88
2022/09/04 07:05:46;;;;;;;2.70;1.10;;;;;;;26.00;51.28;99474.22;6125463;23;20175;-88
2022/09/04 07:08:35;;;;;;;2.03;1.17;;;;;;;25.76;51.29;99487.66;6100296;23;20195;-88
2022/09/04 07:11:45;;;;;;;2.17;1.33;;;;;;;25.81;51.12;99484.50;6099974;23;20463;-88
2022/09/04 07:14:29;;;;;;;2.97;1.27;;;;;;;26.07;50.50;99479.75;6008926;23;20262;-88
2022/09/04 07:17:27;;;;;;;1.30;0.83;;;;;;;26.08;49.88;99482.25;6010386;23;20171;-88
2022/09/04 07:20:16;;;;;;;2.23;0.73;;;;;;;26.32;48.82;99488.63;6109552;23;20156;-89
2022/09/04 07:23:22;;;;;;;2.07;0.93;;;;;;;26.43;48.65;99483.72;6127029;23;20183;-89
2022/09/04 07:26:26;;;;;;;1.67;0.83;;;;;;;26.56;48.67;99483.19;6069561;23;20715;-89
2022/09/04 07:29:08;;;;;;;1.77;0.97;;;;;;;26.67;46.75;99480.13;6101586;23;20163;-87
2022/09/04 07:32:00;;;;;;;1.67;0.70;;;;;;;26.09;48.57;99478.59;6101951;23;20639;-88
2022/09/04 07:34:44;;;;;;;4.63;1.60;;;;;;;26.50;48.39;99476.63;6128190;23;20144;-88
2022/09/04 07:37:22;;;;;;;1.87;1.00;;;;;;;26.70;47.33;99482.47;6128140;23;20230;-88
2022/09/04 07:39:59;;;;;;;1.83;0.90;;;;;;;26.93;46.67;99480.69;6127807;23;20136;-89
2022/09/04 07:42:56;;;;;;;1.17;0.73;;;;;;;26.99;46.24;99477.28;6127653;23;20545;-88
2022/09/04 07:45:37;;;;;;;2.50;0.85;;;;;;;26.91;45.30;99474.66;6101377;23;20148;-87
2022/09/04 07:48:41;;;;;;;2.20;0.98;;;;;;;26.95;45.84;99475.13;6123801;23;20267;-88
2022/09/04 07:51:14;;;;;;;1.50;0.70;;;;;;;26.75;46.16;99472.00;6127350;23;20171;-88
2022/09/04 07:54:11;;;;;;;1.48;0.80;;;;;;;27.03;46.45;99473.22;6125297;23;20639;-88
2022/09/04 07:56:59;;;;;;;1.95;1.00;;;;;;;27.14;45.31;99463.91;6125306;23;20183;-89
2022/09/04 07:59:46;;;;;;;1.98;1.13;;;;;;;27.02;45.12;99451.91;6125408;23;20210;-88
2022/09/04 08:02:48;;;;;;;5.25;1.10;;;;;;;27.19;45.90;99445.38;6125917;23;20148;-90
2022/09/04 08:05:26;;;;;;;2.28;1.20;;;;;;;27.66;45.23;99439.81;6125528;23;20452;-87
2022/09/04 08:08:03;;;;;;;1.60;0.90;;;;;;;27.97;43.85;99430.59;6126341;23;20584;-89
2022/09/04 08:11:09;;;;;;;2.10;0.80;;;;;;;28.25;43.87;99441.59;6126718;23;20203;-88
2022/09/04 08:13:50;;;;;;;2.33;0.88;;;;;;;28.31;43.83;99443.56;6126528;23;20240;-89
2022/09/04 08:16:21;;;;;;;4.63;1.02;;;;;;;28.75;42.76;99442.72;6127167;23;20227;-89
2022/09/04 08:19:13;;;;;;;4.45;1.33;;;;;;;28.92;41.78;99430.66;6101096;23;20215;-89
2022/09/04 08:21:41;;;;;;;4.03;1.13;;;;;;;28.95;41.31;99439.22;6101111;23;20222;-88
2022/09/04 08:24:12;;;;;;;3.15;1.20;;;;;;;28.88;40.93;99442.88;6126853;23;20147;-88
2022/09/04 08:26:59;;;;;;;2.40;0.93;;;;;;;29.10;41.08;99445.41;6099796;23;20156;-89
2022/09/04 08:29:52;;;;;;;2.25;0.70;;;;;;;29.05;40.43;99447.00;6126524;23;20132;-89
2022/09/04 08:32:34;;;;;;;1.98;0.90;;;;;;;29.11;40.47;99457.03;6101498;23;20152;-88
2022/09/04 08:35:13;;;;;;;2.10;0.98;;;;;;;29.54;40.56;99455.22;6126137;23;20160;-88
2022/09/04 08:38:06;;;;;;;2.00;0.80;;;;;;;30.02;39.83;99450.84;6127015;23;20187;-90
2022/09/04 08:41:00;;;;;;;2.17;1.00;;;;;;;29.96;38.09;99449.78;6127229;23;20132;-89
2022/09/04 08:43:57;;;;;;;1.58;0.80;;;;;;;30.04;38.46;99437.97;6127195;23;20580;-89
2022/09/04 08:47:03;;;;;;;2.53;1.30;;;;;;;30.04;38.50;99432.56;6127108;23;20505;-89
2022/09/04 08:49:44;;;;;;;3.28;1.40;;;;;;;30.26;39.52;99443.13;6010029;23;20245;-90
2022/09/04 08:52:35;;;;;;;3.20;1.38;;;;;;;30.64;37.00;99448.97;6009123;23;20465;-89
2022/09/04 08:55:04;;;;;;;2.22;1.08;;;;;;;30.34;37.96;99450.25;6073539;23;20639;-89
2022/09/04 08:57:38;;;;;;;2.33;1.00;;;;;;;30.41;37.93;99457.41;6126886;23;20570;-89
2022/09/04 09:00:10;;;;;;;2.25;1.00;;;;;;;30.54;37.93;99464.75;6127779;23;20177;-90
2022/09/04 09:03:13;;;;;;;2.13;0.98;;;;;;;30.53;37.74;99465.75;6101387;23;20156;-89
2022/09/04 09:06:14;;;;;;;2.15;0.93;;;;;;;30.08;38.24;99450.06;6127337;23;20207;-89
2022/09/04 09:09:17;;;;;;;3.65;1.58;;;;;;;30.01;38.00;99454.59;6124813;23;20142;-88
2022/09/04 09:12:19;;;;;;;3.00;1.48;;;;;;;30.21;38.04;99447.47;6124409;23;20143;-89
2022/09/04 09:15:13;;;;;;;2.22;1.05;;;;;;;30.00;38.77;99447.53;6098684;23;20707;-90
2022/09/04 09:18:17;;;;;;;3.10;1.48;;;;;;;29.97;38.59;99447.91;6098780;23;20166;-89
2022/09/04 09:21:02;;;;;;;2.35;1.20;;;;;;;29.80;39.54;99447.34;6124390;23;20147;-89
2022/09/04 09:23:43;;;;;;;2.53;1.30;;;;;;;29.95;38.68;99441.88;6125804;23;20136;-89
2022/09/04 09:26:28;;;;;;;4.93;1.48;;;;;;;29.76;38.95;99446.91;6127464;23;20147;-90
2022/09/04 09:29:17;;;;;;;2.72;1.15;;;;;;;29.60;38.90;99446.34;6101182;23;20599;-88
2022/09/04 09:32:17;;;;;;;2.45;1.40;;;;;;;29.28;39.91;99453.09;6127417;23;20136;-89
2022/09/04 09:35:01;;;;;;;1.77;1.10;;;;;;;29.26;40.37;99440.81;6023936;23;20218;-90
2022/09/04 09:37:57;;;;;;;3.83;1.90;;;;;;;29.46;39.86;99448.06;6127035;23;20532;-89
2022/09/04 09:41:14;;;;;;;3.38;1.80;;;;;;;29.80;40.04;99448.19;6101978;23;20498;-90
2022/09/04 09:44:14;;;;;;;3.67;1.80;;;;;;;30.16;38.64;99441.81;6062598;23;20151;-89
2022/09/04 09:47:12;;;;;;;2.78;1.58;;;;;;;30.36;38.47;99443.63;6101437;23;20152;-90
2022/09/04 09:50:02;;;;;;;2.95;1.38;;;;;;;30.45;37.74;99451.59;6063328;23;20222;-89
2022/09/04 09:52:40;;;;;;;2.65;1.40;;;;;;;30.50;38.04;99444.53;6101880;23;20695;-89
2022/09/04 09:55:26;;;;;;;2.53;1.10;;;;;;;30.58;37.85;99440.81;6101278;23;20523;-88
2022/09/04 09:58:25;;;;;;;2.33;1.23;;;;;;;29.57;39.10;99458.38;6127652;23;20548;-90
2022/09/04 10:01:23;;;;;;;2.38;1.30;;;;;;;29.77;38.80;99464.78;6126965;23;20132;-90
2022/09/04 10:04:10;;;;;;;2.65;1.40;;;;;;;29.94;39.36;99462.66;6118285;23;20230;-89
2022/09/04 10:07:10;;;;;;;;;;;;;;;;;;;;;
2022/09/04 10:10:09;;;;;;;3.65;1.80;;;;;;;30.30;37.81;99454.38;6127499;23;20219;-90
2022/09/04 10:13:04;;;;;;;3.63;1.67;;;;;;;30.36;37.37;99459.88;6100681;23;20245;-90
2022/09/04 10:15:52;;;;;;;2.42;1.45;;;;;;;30.51;37.92;99458.88;6101789;23;20148;-91
2022/09/04 10:18:55;;;;;;;3.58;2.20;;;;;;;30.59;37.45;99451.44;6100842;23;20235;-90
2022/09/04 10:21:46;;;;;;;2.75;1.40;;;;;;;30.94;37.26;99446.84;6100715;23;20151;-89
2022/09/04 10:24:47;;;;;;;2.85;1.85;;;;;;;31.14;36.75;99441.44;6126208;23;20154;-89
2022/09/04 10:27:48;;;;;;;5.72;1.65;;;;;;;31.26;36.79;99439.84;6009602;23;20166;-89
2022/09/04 10:30:28;;;;;;;3.45;1.77;;;;;;;30.87;37.06;99438.63;6100784;23;20155;-88
2022/09/04 10:33:10;;;;;;;4.28;1.88;;;;;;;30.15;37.96;99429.31;6126942;23;20164;-89
2022/09/04 10:36:11;;;;;;;3.75;1.40;;;;;;;30.65;38.01;99444.41;6126908;23;20148;-89
2022/09/04 10:41:58;;;;;;;4.53;2.17;;;;;;;31.58;35.80;99430.91;6126324;23;20220;-89
2022/09/04 10:44:43;;;;;;;4.68;1.92;;;;;;;31.61;36.42;99433.22;6100769;23;20461;-90
2022/09/04 10:47:46;;;;;;;3.72;2.13;;;;;;;31.88;35.27;99425.91;6100136;23;20559;-91
2022/09/04 10:50:34;;;;;;;3.92;1.95;;;;;;;31.98;35.53;99413.59;6101872;23;20159;-90
2022/09/04 10:53:46;;;;;;;3.85;2.28;;;;;;;32.00;35.40;99424.25;6128015;23;20175;-88
2022/09/04 10:56:25;;;;;;;5.25;2.00;;;;;;;31.24;36.33;99437.31;6128209;23;20163;-89
2022/09/04 10:59:15;;;;;;;3.40;2.03;;;;;;;31.03;36.36;99438.31;6128424;23;20164;-90
2022/09/04 11:01:53;;;;;;;3.05;1.63;;;;;;;31.13;36.85;99443.34;6102974;23;20152;-89
2022/09/04 11:04:27;;;;;;;4.05;2.28;;;;;;;31.29;36.54;99444.84;6128436;23;20132;-89
2022/09/04 11:07:09;;;;;;;2.90;1.75;;;;;;;31.13;36.13;99445.22;6103881;23;20159;-89
2022/09/04 11:13:29;;;;;;;3.47;1.95;;;;;;;31.30;36.17;99427.53;6129272;23;20190;-90
2022/09/04 11:16:19;;;;;;;3.58;2.20;;;;;;;31.21;36.93;99429.59;6128039;23;20140;-90
2022/09/04 11:19:15;;;;;;;3.38;2.20;;;;;;;31.58;35.53;99411.94;6102640;23;20488;-88
2022/09/04 11:22:08;;;;;;;3.42;2.10;;;;;;;32.06;35.14;99418.00;6128986;23;20198;-89
2022/09/04 11:24:58;;;;;;;4.93;2.40;;;;;;;31.40;35.70;99425.25;6128188;23;20132;-88
2022/09/04 11:27:57;;;;;;;4.90;1.77;;;;;;;31.01;36.46;99424.16;6128099;23;20603;-88
2022/09/04 11:30:52;;;;;;;5.47;2.38;;;;;;;31.06;36.40;99401.88;6102376;23;20557;-89
2022/09/04 11:33:36;;;;;;;4.35;2.42;;;;;;;31.02;36.52;99392.50;6127698;23;20183;-89
2022/09/04 11:36:21;;;;;;;5.28;2.15;;;;;;;31.24;36.22;99388.56;6124091;23;20147;-89
2022/09/04 11:39:31;;;;;;;2.83;1.83;;;;;;;30.63;36.82;99384.22;6120677;23;20162;-88
2022/09/04 11:42:19;;;;;;;3.85;2.05;;;;;;;30.42;37.47;99385.19;6097031;23;20166;-90
2022/09/04 11:45:01;;;;;;;5.47;2.50;;;;;;;30.54;37.47;99380.84;6100176;23;20170;-89
2022/09/04 11:48:10;;;;;;;4.00;2.35;;;;;;;30.68;37.94;99377.16;6126645;23;20211;-89
2022/09/04 11:51:03;;;;;;;4.43;2.53;;;;;;;30.69;37.10;99378.81;6100191;23;20486;-89
2022/09/04 11:53:41;;;;;;;4.25;2.28;;;;;;;31.31;36.14;99377.75;6126753;23;20203;-88
2022/09/04 11:56:28;;;;;;;3.80;2.42;;;;;;;31.77;35.40;99370.44;6127496;23;20195;-89
2022/09/04 11:59:33;;;;;;;;;;;;;;;;;;;;;
2022/09/04 12:02:42;;;;;;;3.25;2.08;;;;;;;32.19;34.31;99366.41;6127375;23;20210;-89
2022/09/04 12:05:43;;;;;;;3.97;2.42;;;;;;;32.70;33.47;99353.72;6128530;23;20152;-89
2022/09/04 12:08:36;;;;;;;4.18;2.05;;;;;;;31.98;34.60;99362.06;6126523;23;20155;-90
2022/09/04 12:11:30;;;;;;;3.08;1.73;;;;;;;31.52;35.54;99353.19;6127879;23;20132;-88
2022/09/04 12:14:21;;;;;;;3.08;1.83;;;;;;;31.54;35.41;99351.94;6103121;23;20191;-87
2022/09/04 12:16:49;;;;;;;4.10;2.08;;;;;;;31.49;35.22;99342.75;6128117;23;20140;-88
2022/09/04 12:19:40;;;;;;;7.07;1.67;;;;;;;31.63;35.21;99341.69;6128041;23;20585;-89
2022/09/04 12:22:17;;;;;;;3.53;1.83;;;;;;;31.63;34.97;99334.38;6101897;23;20163;-89
2022/09/04 12:25:04;;;;;;;2.97;1.75;;;;;;;31.71;34.60;99336.03;6127388;23;20147;-88
2022/09/04 12:27:51;;;;;;;3.63;1.77;;;;;;;30.96;35.38;99347.28;6127673;23;20146;-87
2022/09/04 12:30:22;;;;;;;4.15;2.10;;;;;;;31.28;35.03;99342.94;6102037;23;20488;-88
2022/09/04 12:33:06;;;;;;;3.17;1.98;;;;;;;31.47;35.34;99334.00;6127163;23;20322;-89
2022/09/04 12:36:09;;;;;;;4.05;2.17;;;;;;;32.17;34.38;99336.81;6102130;23;20155;-88
2022/09/04 12:39:04;;;;;;;;;;;;;;;;;;;;;
2022/09/04 12:41:42;;;;;;;3.35;1.83;;;;;;;32.89;32.71;99330.19;6127191;23;20243;-88
2022/09/04 12:44:37;;;;;;;2.67;1.83;;;;;;;33.13;33.13;99320.44;6127895;23;20211;-91
2022/09/04 12:47:31;;;;;;;2.97;1.75;;;;;;;33.16;32.42;99331.69;6102278;23;20156;-89
2022/09/04 12:50:14;;;;;;;3.33;1.70;;;;;;;33.33;32.64;99326.56;6126842;23;20543;-89
2022/09/04 12:52:49;;;;;;;2.50;1.60;;;;;;;32.83;32.44;99322.94;6128061;23;20168;-88
2022/09/04 12:55:35;;;;;;;3.55;1.80;;;;;;;33.07;32.17;99333.00;6127445;23;20238;-90
2022/09/04 12:58:35;;;;;;;;;;;;;;;;;;;;;
2022/09/04 13:01:36;;;;;;;3.90;1.83;;;;;;;32.23;32.95;99330.50;6128091;23;20269;-90
2022/09/04 13:04:24;;;;;;;4.38;2.28;;;;;;;32.14;33.60;99333.69;6127745;23;20215;-90
2022/09/04 13:07:10;;;;;;;3.58;1.83;;;;;;;32.18;33.63;99337.66;6127595;23;20195;-89
2022/09/04 13:09:58;;;;;;;3.95;1.92;;;;;;;32.09;33.44;99345.19;6127304;23;20136;-89
2022/09/04 13:12:51;;;;;;;5.50;2.17;;;;;;;32.33;33.74;99340.06;6127842;23;20150;-90
2022/09/04 13:16:07;;;;;;;3.28;1.85;;;;;;;32.89;33.06;99329.38;6101274;23;20156;-91
2022/09/04 13:18:48;;;;;;;3.00;1.90;;;;;;;33.21;31.69;99322.88;6119169;23;20194;-88
2022/09/04 13:21:24;;;;;;;3.55;2.15;;;;;;;32.67;32.48;99326.16;6127561;23;20620;-89